createdAt,value
2022-08-07T00:01:44.664Z,100350.16
2022-08-07T00:04:45.382Z,100349.34
2022-08-07T00:07:48.416Z,100350.09
2022-08-07T00:11:00.837Z,100347.50
2022-08-07T00:14:08.791Z,100353.91
2022-08-07T00:17:13.832Z,100351.22
2022-08-07T00:20:16.194Z,100344.00
2022-08-07T00:23:33.635Z,100354.63
2022-08-07T00:26:49.341Z,100349.31
2022-08-07T00:29:58.639Z,100355.47
2022-08-07T00:33:01.198Z,100352.69
2022-08-07T00:36:06.274Z,100345.44
2022-08-07T00:39:09.124Z,100343.66
2022-08-07T00:42:19.402Z,100345.37
2022-08-07T00:45:31.604Z,100348.16
2022-08-07T00:48:42.280Z,100347.22
2022-08-07T00:51:57.246Z,100347.06
2022-08-07T00:55:04.767Z,100342.84
2022-08-07T00:58:13.329Z,100342.13
2022-08-07T01:01:16.752Z,100346.53
2022-08-07T01:04:24.696Z,100348.34
2022-08-07T01:07:29.295Z,100342.91
2022-08-07T01:10:32.572Z,100338.47
2022-08-07T01:13:37.222Z,100340.94
2022-08-07T01:16:43.187Z,100339.38
2022-08-07T01:19:54.238Z,100345.63
2022-08-07T01:23:09.070Z,100347.16
2022-08-07T01:26:16.788Z,100347.03
2022-08-07T01:29:27.686Z,100339.06
2022-08-07T01:32:34.477Z,100333.66
2022-08-07T01:35:53.727Z,100336.75
2022-08-07T01:38:58.308Z,100336.78
2022-08-07T01:42:36.997Z,100332.47
2022-08-07T01:45:36.306Z,100332.28
2022-08-07T01:48:47.602Z,100334.84
2022-08-07T01:52:03.936Z,100337.62
2022-08-07T01:55:09.727Z,100342.06
2022-08-07T01:58:33.061Z,100344.81
2022-08-07T02:01:59.922Z,100347.53
2022-08-07T02:05:04.882Z,100345.81
2022-08-07T02:08:14.865Z,100341.31
2022-08-07T02:11:30.882Z,100340.38
2022-08-07T02:14:41.336Z,100347.59
2022-08-07T02:17:49.858Z,100349.37
2022-08-07T02:20:57.449Z,100344.78
2022-08-07T02:24:00.424Z,100356.31
2022-08-07T02:27:05.200Z,100347.47
2022-08-07T02:30:09.329Z,100354.41
2022-08-07T02:33:13.940Z,100354.34
2022-08-07T02:36:28.988Z,100362.53
2022-08-07T02:39:43.702Z,100366.03
2022-08-07T02:43:00.228Z,100367.16
2022-08-07T02:46:05.091Z,100368.03
2022-08-07T02:49:07.966Z,100364.47
2022-08-07T02:52:14.062Z,100371.66
2022-08-07T02:55:28.236Z,100367.09
2022-08-07T02:58:49.608Z,100374.25
2022-08-07T03:01:55.363Z,100369.13
2022-08-07T03:04:58.800Z,100370.94
2022-08-07T03:08:05.053Z,100372.56
2022-08-07T03:11:11.081Z,100369.97
2022-08-07T03:14:14.777Z,100366.53
2022-08-07T03:17:17.748Z,100371.12
2022-08-07T03:20:20.527Z,100368.63
2022-08-07T03:23:33.542Z,100373.03
2022-08-07T03:26:51.374Z,100376.47
2022-08-07T03:30:01.023Z,100375.53
2022-08-07T03:33:10.000Z,100380.03
2022-08-07T03:36:16.411Z,100387.31
2022-08-07T03:39:59.766Z,100377.59
2022-08-07T03:42:44.626Z,100381.19
2022-08-07T03:45:48.771Z,100383.88
2022-08-07T03:49:02.441Z,100377.44
2022-08-07T03:52:07.636Z,100379.34
2022-08-07T03:55:53.025Z,100379.25
2022-08-07T03:59:07.779Z,100390.13
2022-08-07T04:02:13.539Z,100397.22
2022-08-07T04:05:19.699Z,100394.28
2022-08-07T04:08:27.602Z,100396.91
2022-08-07T04:12:21.519Z,100401.53
2022-08-07T04:14:55.315Z,100413.16
2022-08-07T04:18:58.262Z,100412.22
2022-08-07T04:21:21.879Z,100415.00
2022-08-07T04:24:33.799Z,100427.41
2022-08-07T04:27:44.315Z,100424.66
2022-08-07T04:30:57.068Z,100429.03
2022-08-07T04:34:01.378Z,100429.81
2022-08-07T04:37:08.131Z,100439.47
2022-08-07T04:40:26.779Z,100440.31
2022-08-07T04:44:11.862Z,100441.16
2022-08-07T04:47:08.370Z,100434.03
2022-08-07T04:50:28.499Z,100440.00
2022-08-07T04:54:01.048Z,100441.44
2022-08-07T04:58:15.883Z,100436.94
2022-08-07T05:00:44.089Z,100442.22
2022-08-07T05:04:06.760Z,100443.19
2022-08-07T05:07:19.546Z,100447.56
2022-08-07T05:10:25.000Z,100451.13
2022-08-07T05:14:52.378Z,100459.16
2022-08-07T05:17:05.921Z,100456.66
2022-08-07T05:20:17.667Z,100467.63
2022-08-07T05:23:29.818Z,100467.63
2022-08-07T05:26:34.658Z,100468.47
2022-08-07T05:29:51.198Z,100466.50
2022-08-07T05:32:55.760Z,100469.00
2022-08-07T05:36:01.290Z,100469.31
2022-08-07T05:39:09.210Z,100477.28
2022-08-07T05:42:34.211Z,100469.19
2022-08-07T05:45:47.353Z,100476.97
2022-08-07T05:48:59.030Z,100476.12
2022-08-07T05:52:04.633Z,100482.25
2022-08-07T05:55:10.809Z,100484.84
2022-08-07T05:58:16.843Z,100486.56
2022-08-07T06:01:20.968Z,100485.66
2022-08-07T06:04:29.990Z,100488.19
2022-08-07T06:08:14.392Z,100473.91
2022-08-07T06:10:58.532Z,100472.00
2022-08-07T06:14:12.401Z,100478.84
2022-08-07T06:17:30.561Z,100474.22
2022-08-07T06:20:49.763Z,100475.03
2022-08-07T06:24:39.182Z,100488.00
2022-08-07T06:27:22.838Z,100484.28
2022-08-07T06:30:46.140Z,100487.75
2022-08-07T06:33:56.399Z,100500.03
2022-08-07T06:36:59.584Z,100503.72
2022-08-07T06:40:16.205Z,100504.69
2022-08-07T06:43:24.969Z,100512.59
2022-08-07T06:46:34.983Z,100510.63
2022-08-07T06:49:52.283Z,100517.56
2022-08-07T06:53:04.224Z,100516.31
2022-08-07T06:56:15.364Z,100512.69
2022-08-07T07:00:13.059Z,100518.66
2022-08-07T07:02:53.431Z,100521.13
2022-08-07T07:06:03.413Z,100515.31
2022-08-07T07:09:26.272Z,100518.56
2022-08-07T07:12:48.808Z,100522.06
2022-08-07T07:16:00.486Z,100520.09
2022-08-07T07:19:54.484Z,100514.63
2022-08-07T07:22:35.783Z,100519.19
2022-08-07T07:26:32.445Z,100520.59
2022-08-07T07:29:57.172Z,100523.59
2022-08-07T07:32:36.035Z,100524.50
2022-08-07T07:35:54.211Z,100513.00
2022-08-07T07:39:05.671Z,100503.16
2022-08-07T07:42:13.954Z,100508.56
2022-08-07T07:45:24.474Z,100506.88
2022-08-07T07:48:46.475Z,100513.16
2022-08-07T07:51:57.509Z,100505.22
2022-08-07T07:55:03.402Z,100513.91
2022-08-07T07:58:06.179Z,100504.56
2022-08-07T08:02:02.903Z,100515.00
2022-08-07T08:04:33.619Z,100516.41
2022-08-07T08:07:51.449Z,100516.03
2022-08-07T08:11:00.996Z,100510.44
2022-08-07T08:14:03.512Z,100511.63
2022-08-07T08:17:55.677Z,100516.38
2022-08-07T08:20:33.079Z,100513.47
2022-08-07T08:23:57.666Z,100516.75
2022-08-07T08:27:09.370Z,100510.44
2022-08-07T08:30:14.356Z,100515.44
2022-08-07T08:33:23.321Z,100510.38
2022-08-07T08:36:29.581Z,100510.63
2022-08-07T08:39:39.896Z,100510.09
2022-08-07T08:43:08.876Z,100511.53
2022-08-07T08:46:23.666Z,100509.50
2022-08-07T08:49:46.739Z,100510.88
2022-08-07T08:53:03.880Z,100524.84
2022-08-07T08:56:08.508Z,100516.19
2022-08-07T08:59:27.762Z,100517.66
2022-08-07T09:02:40.446Z,100514.03
2022-08-07T09:05:50.633Z,100520.09
2022-08-07T09:09:13.388Z,100517.66
2022-08-07T09:12:53.233Z,100516.84
2022-08-07T09:16:23.617Z,100517.75
2022-08-07T09:19:52.744Z,100510.06
2022-08-07T09:24:33.579Z,100509.03
2022-08-07T09:26:47.633Z,100503.94
2022-08-07T09:30:04.271Z,100506.66
2022-08-07T09:33:53.038Z,100507.31
2022-08-07T09:36:58.137Z,100505.53
2022-08-07T09:40:19.384Z,100501.81
2022-08-07T09:44:03.588Z,100499.69
2022-08-07T09:47:51.295Z,100501.16
2022-08-07T09:50:40.308Z,100497.53
2022-08-07T09:53:49.945Z,100494.66
2022-08-07T09:57:21.792Z,100487.22
2022-08-07T10:00:31.820Z,100490.19
2022-08-07T10:04:06.620Z,100488.22
2022-08-07T10:07:06.318Z,100477.69
2022-08-07T10:11:59.463Z,100470.81
2022-08-07T10:14:30.364Z,100464.63
2022-08-07T10:18:00.320Z,100463.34
2022-08-07T10:21:19.505Z,100460.41
2022-08-07T10:24:45.516Z,100454.09
2022-08-07T10:27:53.955Z,100457.13
2022-08-07T10:31:17.718Z,100448.34
2022-08-07T10:34:27.389Z,100454.50
2022-08-07T10:37:59.918Z,100452.75
2022-08-07T10:40:59.795Z,100444.22
2022-08-07T10:44:07.592Z,100440.37
2022-08-07T10:47:19.225Z,100438.91
2022-08-07T10:50:32.098Z,100434.47
2022-08-07T10:53:44.031Z,100433.94
2022-08-07T10:56:53.368Z,100429.81
2022-08-07T11:00:10.040Z,100413.63
2022-08-07T11:03:54.952Z,100419.38
2022-08-07T11:07:56.280Z,100418.97
2022-08-07T11:10:45.339Z,100412.38
2022-08-07T11:14:43.718Z,100406.06
2022-08-07T11:17:42.858Z,100410.81
2022-08-07T11:21:11.243Z,100402.19
2022-08-07T11:24:16.635Z,100403.63
2022-08-07T11:28:00.924Z,100393.22
2022-08-07T11:30:54.457Z,100385.34
2022-08-07T11:34:03.219Z,100386.03
2022-08-07T11:37:24.969Z,100386.75
2022-08-07T11:40:49.644Z,100384.38
2022-08-07T11:44:11.711Z,100388.25
2022-08-07T11:47:38.587Z,100379.91
2022-08-07T11:50:57.782Z,100379.00
2022-08-07T11:54:12.002Z,100380.69
2022-08-07T11:57:15.990Z,100379.56
2022-08-07T12:00:27.676Z,100377.56
2022-08-07T12:03:45.508Z,100367.75
2022-08-07T12:06:59.047Z,100369.94
2022-08-07T12:10:08.554Z,100363.75
2022-08-07T12:13:36.751Z,100362.41
2022-08-07T12:16:48.270Z,100361.28
2022-08-07T12:19:56.485Z,100360.78
2022-08-07T12:23:21.453Z,100360.78
2022-08-07T12:26:53.638Z,100353.81
2022-08-07T12:30:04.223Z,100349.25
2022-08-07T12:33:23.541Z,100337.97
2022-08-07T12:36:33.735Z,100338.06
2022-08-07T12:39:43.073Z,100338.69
2022-08-07T12:42:52.665Z,100329.75
2022-08-07T12:46:12.250Z,100323.38
2022-08-07T12:49:48.855Z,100328.56
2022-08-07T12:52:52.947Z,100321.09
2022-08-07T12:56:03.318Z,100320.25
2022-08-07T12:59:08.389Z,100321.38
2022-08-07T13:02:33.291Z,100310.19
2022-08-07T13:06:03.743Z,100310.06
2022-08-07T13:10:17.831Z,100307.47
2022-08-07T13:12:42.326Z,100308.84
2022-08-07T13:16:05.265Z,100319.34
2022-08-07T13:19:21.745Z,100305.03
2022-08-07T13:22:53.521Z,100302.25
2022-08-07T13:26:02.880Z,100308.59
2022-08-07T13:29:10.999Z,100307.87
2022-08-07T13:32:32.262Z,100304.78
2022-08-07T13:36:00.436Z,100298.94
2022-08-07T13:39:28.678Z,100300.19
2022-08-07T13:42:39.775Z,100292.72
2022-08-07T13:46:12.000Z,100289.88
2022-08-07T13:49:19.761Z,100278.91
2022-08-07T13:52:38.072Z,100278.50
2022-08-07T13:55:54.177Z,100274.44
2022-08-07T13:59:01.698Z,100265.38
2022-08-07T14:02:12.810Z,100261.97
2022-08-07T14:05:20.048Z,100265.47
2022-08-07T14:08:25.263Z,100257.59
2022-08-07T14:11:28.921Z,100245.88
2022-08-07T14:15:14.200Z,100248.66
2022-08-07T14:18:28.058Z,100249.16
2022-08-07T14:22:01.441Z,100251.34
2022-08-07T14:25:00.762Z,100242.88
2022-08-07T14:28:10.874Z,100248.78
2022-08-07T14:31:16.461Z,100245.59
2022-08-07T14:34:27.244Z,100244.50
2022-08-07T14:37:38.827Z,100240.16
2022-08-07T14:40:49.474Z,100236.00
2022-08-07T14:47:17.271Z,100231.50
2022-08-07T14:50:23.717Z,100222.91
2022-08-07T14:56:54.440Z,100220.59
2022-08-07T15:00:04.558Z,100219.94
2022-08-07T15:03:18.834Z,100218.41
2022-08-07T15:06:23.804Z,100213.47
2022-08-07T15:09:58.256Z,100211.56
2022-08-07T15:12:58.515Z,100221.13
2022-08-07T15:16:03.560Z,100213.56
2022-08-07T15:19:18.338Z,100203.91
2022-08-07T15:25:51.045Z,100204.38
2022-08-07T15:32:39.035Z,100196.56
2022-08-07T15:36:02.636Z,100192.78
2022-08-07T15:42:45.950Z,100200.88
2022-08-07T15:52:38.224Z,100189.91
2022-08-07T15:56:02.196Z,100184.97
2022-08-07T15:59:07.413Z,100188.44
2022-08-07T16:02:24.312Z,100188.94
2022-08-07T16:05:31.117Z,100178.47
2022-08-07T16:08:38.400Z,100180.31
2022-08-07T16:12:02.698Z,100183.03
2022-08-07T16:15:55.089Z,100185.22
2022-08-07T16:18:52.471Z,100184.88
2022-08-07T16:22:31.609Z,100177.47
2022-08-07T16:25:55.726Z,100186.88
2022-08-07T16:30:08.246Z,100184.88
2022-08-07T16:32:35.058Z,100183.47
2022-08-07T16:35:52.160Z,100182.91
2022-08-07T16:39:33.489Z,100183.84
2022-08-07T16:42:36.640Z,100187.03
2022-08-07T16:46:47.444Z,100190.34
2022-08-07T16:50:29.136Z,100189.63
2022-08-07T16:54:02.475Z,100180.50
2022-08-07T16:56:43.876Z,100181.75
2022-08-07T17:00:01.660Z,100181.03
2022-08-07T17:03:57.791Z,100187.38
2022-08-07T17:07:07.646Z,100177.72
2022-08-07T17:10:33.777Z,100191.28
2022-08-07T17:14:17.485Z,100194.13
2022-08-07T17:17:06.381Z,100193.81
2022-08-07T17:20:20.624Z,100198.03
2022-08-07T17:23:33.180Z,100194.28
2022-08-07T17:26:50.164Z,100194.72
2022-08-07T17:30:18.123Z,100197.91
2022-08-07T17:34:08.583Z,100192.44
2022-08-07T17:36:59.888Z,100191.78
2022-08-07T17:40:30.141Z,100194.66
2022-08-07T17:44:00.947Z,100204.03
2022-08-07T17:46:58.564Z,100205.53
2022-08-07T17:50:01.842Z,100216.66
2022-08-07T17:54:01.632Z,100211.44
2022-08-07T17:56:49.600Z,100219.41
2022-08-07T18:00:06.415Z,100222.44
2022-08-07T18:03:18.805Z,100224.59
2022-08-07T18:06:38.527Z,100224.91
2022-08-07T18:10:04.459Z,100228.03
2022-08-07T18:13:15.501Z,100239.69
2022-08-07T18:16:32.595Z,100246.06
2022-08-07T18:21:04.066Z,100250.72
2022-08-07T18:23:21.827Z,100250.94
2022-08-07T18:26:40.711Z,100265.19
2022-08-07T18:30:07.818Z,100264.72
2022-08-07T18:33:38.956Z,100263.91
2022-08-07T18:38:57.158Z,100263.41
2022-08-07T18:40:50.245Z,100266.59
2022-08-07T18:44:05.655Z,100262.88
2022-08-07T18:47:22.947Z,100272.59
2022-08-07T18:50:39.618Z,100277.50
2022-08-07T18:54:27.640Z,100286.47
2022-08-07T18:57:36.779Z,100287.59
2022-08-07T19:00:53.766Z,100288.84
2022-08-07T19:04:09.962Z,100290.72
2022-08-07T19:07:34.553Z,100297.34
2022-08-07T19:10:51.272Z,100299.38
2022-08-07T19:14:08.118Z,100300.91
2022-08-07T19:17:20.272Z,100305.84
2022-08-07T19:21:10.077Z,100313.34
2022-08-07T19:24:30.749Z,100311.72
2022-08-07T19:28:56.984Z,100314.72
2022-08-07T19:31:42.859Z,100325.63
2022-08-07T19:34:36.165Z,100324.16
2022-08-07T19:37:57.239Z,100341.53
2022-08-07T19:41:00.758Z,100343.38
2022-08-07T19:44:04.768Z,100352.53
2022-08-07T19:47:28.785Z,100352.00
2022-08-07T19:50:41.181Z,100359.22
2022-08-07T19:54:33.747Z,100364.66
2022-08-07T19:58:00.565Z,100361.94
2022-08-07T20:00:54.174Z,100365.78
2022-08-07T20:04:00.240Z,100367.22
2022-08-07T20:07:03.770Z,100376.41
2022-08-07T20:10:37.370Z,100370.06
2022-08-07T20:13:38.023Z,100372.25
2022-08-07T20:16:54.478Z,100371.63
2022-08-07T20:19:59.065Z,100382.50
2022-08-07T20:23:10.799Z,100379.87
2022-08-07T20:26:38.463Z,100391.62
2022-08-07T20:29:59.230Z,100398.91
2022-08-07T20:33:09.112Z,100402.44
2022-08-07T20:36:30.761Z,100392.63
2022-08-07T20:40:04.303Z,100399.06
2022-08-07T20:42:59.059Z,100392.13
2022-08-07T20:46:28.847Z,100394.03
2022-08-07T20:49:59.395Z,100391.56
2022-08-07T20:52:51.213Z,100387.19
2022-08-07T20:55:57.593Z,100388.94
2022-08-07T20:59:03.255Z,100390.63
2022-08-07T21:02:34.766Z,100395.34
2022-08-07T21:05:51.318Z,100398.00
2022-08-07T21:09:03.429Z,100408.16
2022-08-07T21:12:15.926Z,100407.50
2022-08-07T21:15:58.137Z,100414.56
2022-08-07T21:18:57.618Z,100409.50
2022-08-07T21:22:03.841Z,100413.03
2022-08-07T21:25:19.253Z,100409.63
2022-08-07T21:28:48.362Z,100416.94
2022-08-07T21:32:48.089Z,100422.47
2022-08-07T21:35:34.633Z,100429.47
2022-08-07T21:38:55.515Z,100434.22
2022-08-07T21:42:07.379Z,100437.97
2022-08-07T21:46:03.784Z,100439.06
2022-08-07T21:49:04.771Z,100435.53
2022-08-07T21:52:29.294Z,100444.56
2022-08-07T21:55:51.634Z,100443.78
2022-08-07T21:59:14.160Z,100438.41
2022-08-07T22:02:21.650Z,100443.00
2022-08-07T22:05:46.114Z,100442.38
2022-08-07T22:08:59.598Z,100443.22
2022-08-07T22:12:07.312Z,100445.84
2022-08-07T22:16:39.827Z,100448.56
2022-08-07T22:18:42.051Z,100450.44
2022-08-07T22:22:17.651Z,100448.50
2022-08-07T22:25:43.079Z,100450.44
2022-08-07T22:28:53.135Z,100446.22
2022-08-07T22:32:20.415Z,100446.22
2022-08-07T22:35:23.463Z,100442.69
2022-08-07T22:39:01.906Z,100447.25
2022-08-07T22:42:19.595Z,100454.41
2022-08-07T22:46:21.316Z,100454.47
2022-08-07T22:49:33.884Z,100456.91
2022-08-07T22:52:46.020Z,100457.91
2022-08-07T22:55:59.921Z,100454.28
2022-08-07T22:59:18.304Z,100460.50
2022-08-07T23:02:37.364Z,100460.47
2022-08-07T23:06:08.709Z,100464.19
2022-08-07T23:10:06.080Z,100466.16
2022-08-07T23:12:59.095Z,100472.16
2022-08-07T23:16:48.511Z,100469.50
2022-08-07T23:19:58.513Z,100479.41
2022-08-07T23:24:04.502Z,100477.53
2022-08-07T23:26:58.209Z,100479.41
2022-08-07T23:30:38.622Z,100477.87
2022-08-07T23:34:36.480Z,100477.78
2022-08-07T23:37:19.192Z,100480.66
2022-08-07T23:40:46.983Z,100476.22
2022-08-07T23:44:10.634Z,100478.00
2022-08-07T23:47:23.380Z,100469.03
2022-08-07T23:50:45.226Z,100475.44
2022-08-07T23:53:54.131Z,100476.50
2022-08-07T23:57:18.595Z,100478.38
